Gajny, Russia
Current Conditions -  °F | °C
As of 9:00 PM on Friday 31 Oct 2014 (Local Time) from UUYY Reporting Station
Overcast Overcast  
Wind Chill: 30°   Ceiling: 1800
Heat Index: 34°   Visibility: 6mi
Dew Point: 30°   Wind: 4mph
Humidity: 87%   Direction: NA
Pressure: 29.77"   Gusts: NA
Location:  60.3°N, 54.33°E
Report Text: UUYY 311700Z VRB02MPS 9000 SCT008 BKN018CB OVC200 01/M01 Q1008 TEMPO 2000 SHSN 1919//55 RMK QFE747/0996
Loading
Personal Weather Stations






























Interactive Weather Map
Tropical Storm Tracking
New forecast layout! Learn more

10-Day Weather Forecast

Advertisements
Track Severe Weather on mobile